sensor_id;sensor_type;location;lat;lon;timestamp;pressure;altitude;pressure_sealevel;temperature;humidity
5814;BME280;2933;52.302;8.134;2024-01-30T00:01:46;79050.38;;;-148.04;100.00
5814;BME280;2933;52.302;8.134;2024-01-30T00:06:47;79052.34;;;-148.04;100.00
5814;BME280;2933;52.302;8.134;2024-01-30T00:11:49;79054.34;;;-148.04;100.00
5814;BME280;2933;52.302;8.134;2024-01-30T00:16:52;79040.41;;;-148.04;100.00
5814;BME280;2933;52.302;8.134;2024-01-30T00:21:54;79022.53;;;-148.04;100.00
5814;BME280;2933;52.302;8.134;2024-01-30T00:26:56;79022.53;;;-148.04;100.00
5814;BME280;2933;52.302;8.134;2024-01-30T00:31:59;79016.56;;;-148.04;100.00
5814;BME280;2933;52.302;8.134;2024-01-30T00:37:00;79004.63;;;-148.04;100.00
5814;BME280;2933;52.302;8.134;2024-01-30T00:42:02;79010.59;;;-148.04;100.00
5814;BME280;2933;52.302;8.134;2024-01-30T00:47:05;78998.66;;;-148.04;100.00
5814;BME280;2933;52.302;8.134;2024-01-30T00:52:07;78998.66;;;-148.04;100.00
5814;BME280;2933;52.302;8.134;2024-01-30T00:57:09;79000.63;;;-148.04;100.00
5814;BME280;2933;52.302;8.134;2024-01-30T01:02:12;78998.66;;;-148.04;100.00
5814;BME280;2933;52.302;8.134;2024-01-30T01:07:15;79008.59;;;-148.04;100.00
5814;BME280;2933;52.302;8.134;2024-01-30T01:12:17;79014.56;;;-148.04;100.00
5814;BME280;2933;52.302;8.134;2024-01-30T01:17:20;79016.56;;;-148.04;100.00
5814;BME280;2933;52.302;8.134;2024-01-30T01:22:21;79028.47;;;-148.04;100.00
5814;BME280;2933;52.302;8.134;2024-01-30T01:27:23;79032.47;;;-148.04;100.00
5814;BME280;2933;52.302;8.134;2024-01-30T01:32:26;79034.44;;;-148.04;100.00
5814;BME280;2933;52.302;8.134;2024-01-30T01:37:28;79032.47;;;-148.04;100.00
5814;BME280;2933;52.302;8.134;2024-01-30T01:42:29;79038.44;;;-148.04;100.00
5814;BME280;2933;52.302;8.134;2024-01-30T01:47:32;79044.41;;;-148.04;100.00
5814;BME280;2933;52.302;8.134;2024-01-30T01:52:34;79044.41;;;-148.04;100.00
5814;BME280;2933;52.302;8.134;2024-01-30T01:57:36;79052.34;;;-148.04;100.00
5814;BME280;2933;52.302;8.134;2024-01-30T02:02:39;79050.38;;;-148.04;100.00
5814;BME280;2933;52.302;8.134;2024-01-30T02:07:41;79048.38;;;-148.04;100.00
5814;BME280;2933;52.302;8.134;2024-01-30T02:12:43;79038.44;;;-148.04;100.00
5814;BME280;2933;52.302;8.134;2024-01-30T02:17:46;79030.47;;;-148.04;100.00
5814;BME280;2933;52.302;8.134;2024-01-30T02:22:49;79012.56;;;-148.04;100.00
5814;BME280;2933;52.302;8.134;2024-01-30T02:27:50;79018.53;;;-148.04;100.00
5814;BME280;2933;52.302;8.134;2024-01-30T02:32:52;79016.56;;;-148.04;100.00
5814;BME280;2933;52.302;8.134;2024-01-30T02:37:55;79012.56;;;-148.04;100.00
5814;BME280;2933;52.302;8.134;2024-01-30T02:42:58;79004.63;;;-148.04;100.00
5814;BME280;2933;52.302;8.134;2024-01-30T02:48:00;78986.72;;;-148.04;100.00
5814;BME280;2933;52.302;8.134;2024-01-30T02:53:03;78980.75;;;-148.04;100.00
5814;BME280;2933;52.302;8.134;2024-01-30T02:58:05;78960.84;;;-148.04;100.00
5814;BME280;2933;52.302;8.134;2024-01-30T03:03:07;78952.91;;;-148.04;100.00
5814;BME280;2933;52.302;8.134;2024-01-30T03:08:10;78952.91;;;-148.04;100.00
5814;BME280;2933;52.302;8.134;2024-01-30T03:13:12;78950.91;;;-148.04;100.00
5814;BME280;2933;52.302;8.134;2024-01-30T03:18:14;78944.94;;;-148.04;100.00
5814;BME280;2933;52.302;8.134;2024-01-30T03:23:17;78935.00;;;-148.04;100.00
5814;BME280;2933;52.302;8.134;2024-01-30T03:28:18;78929.03;;;-148.04;100.00
5814;BME280;2933;52.302;8.134;2024-01-30T03:33:20;78925.06;;;-148.04;100.00
5814;BME280;2933;52.302;8.134;2024-01-30T03:38:23;78913.13;;;-148.04;100.00
5814;BME280;2933;52.302;8.134;2024-01-30T03:43:24;78917.09;;;-148.04;100.00
5814;BME280;2933;52.302;8.134;2024-01-30T03:48:26;78901.19;;;-148.04;100.00
5814;BME280;2933;52.302;8.134;2024-01-30T03:53:29;78897.19;;;-148.04;100.00
5814;BME280;2933;52.302;8.134;2024-01-30T03:58:31;78895.22;;;-148.04;100.00
5814;BME280;2933;52.302;8.134;2024-01-30T04:03:32;78897.19;;;-148.04;100.00
5814;BME280;2933;52.302;8.134;2024-01-30T04:08:35;78897.19;;;-148.04;100.00
5814;BME280;2933;52.302;8.134;2024-01-30T04:13:38;78903.16;;;-148.04;100.00
5814;BME280;2933;52.302;8.134;2024-01-30T04:18:39;78905.16;;;-148.04;100.00
5814;BME280;2933;52.302;8.134;2024-01-30T04:23:43;78903.16;;;-148.04;100.00
5814;BME280;2933;52.302;8.134;2024-01-30T04:28:45;78907.16;;;-148.04;100.00
5814;BME280;2933;52.302;8.134;2024-01-30T04:33:46;78907.16;;;-148.04;100.00
5814;BME280;2933;52.302;8.134;2024-01-30T04:38:49;78905.16;;;-148.04;100.00
5814;BME280;2933;52.302;8.134;2024-01-30T04:43:51;78895.22;;;-148.04;100.00
5814;BME280;2933;52.302;8.134;2024-01-30T04:48:53;78887.25;;;-148.04;100.00
5814;BME280;2933;52.302;8.134;2024-01-30T04:53:56;78877.31;;;-148.04;100.00
5814;BME280;2933;52.302;8.134;2024-01-30T04:58:58;78875.31;;;-148.04;100.00
5814;BME280;2933;52.302;8.134;2024-01-30T05:03:59;78867.38;;;-148.04;100.00
5814;BME280;2933;52.302;8.134;2024-01-30T05:09:03;78855.44;;;-148.04;100.00
5814;BME280;2933;52.302;8.134;2024-01-30T05:14:05;78851.44;;;-148.04;100.00
5814;BME280;2933;52.302;8.134;2024-01-30T05:19:07;78845.50;;;-148.04;100.00
5814;BME280;2933;52.302;8.134;2024-01-30T05:24:10;78835.53;;;-148.04;100.00
5814;BME280;2933;52.302;8.134;2024-01-30T05:29:11;78829.56;;;-148.04;100.00
5814;BME280;2933;52.302;8.134;2024-01-30T05:34:13;78827.59;;;-148.04;100.00
5814;BME280;2933;52.302;8.134;2024-01-30T05:39:16;78821.63;;;-148.04;100.00
5814;BME280;2933;52.302;8.134;2024-01-30T05:44:18;78823.59;;;-148.04;100.00
5814;BME280;2933;52.302;8.134;2024-01-30T05:49:19;78813.66;;;-148.04;100.00
5814;BME280;2933;52.302;8.134;2024-01-30T05:54:23;78767.91;;;-148.04;100.00
5814;BME280;2933;52.302;8.134;2024-01-30T05:59:25;78730.13;;;-148.04;100.00
5814;BME280;2933;52.302;8.134;2024-01-30T06:04:26;78724.16;;;-148.04;100.00
5814;BME280;2933;52.302;8.134;2024-01-30T06:09:29;78738.06;;;-148.04;100.00
5814;BME280;2933;52.302;8.134;2024-01-30T06:14:31;78744.03;;;-148.04;100.00
5814;BME280;2933;52.302;8.134;2024-01-30T06:19:33;78728.13;;;-148.04;100.00
5814;BME280;2933;52.302;8.134;2024-01-30T06:24:36;78696.31;;;-148.04;100.00
5814;BME280;2933;52.302;8.134;2024-01-30T06:29:38;78656.53;;;-148.04;100.00
5814;BME280;2933;52.302;8.134;2024-01-30T06:34:40;78618.72;;;-148.04;100.00
5814;BME280;2933;52.302;8.134;2024-01-30T06:39:45;78592.88;;;-148.04;100.00
5814;BME280;2933;52.302;8.134;2024-01-30T06:44:47;78580.94;;;-148.04;100.00
5814;BME280;2933;52.302;8.134;2024-01-30T06:49:49;78557.06;;;-148.04;100.00
5814;BME280;2933;52.302;8.134;2024-01-30T06:54:52;78523.25;;;-148.04;100.00
5814;BME280;2933;52.302;8.134;2024-01-30T06:59:56;78481.50;;;-148.04;100.00
5814;BME280;2933;52.302;8.134;2024-01-30T07:04:58;78447.69;;;-148.04;100.00
5814;BME280;2933;52.302;8.134;2024-01-30T07:10:01;78435.75;;;-148.04;100.00
5814;BME280;2933;52.302;8.134;2024-01-30T07:15:03;78429.78;;;-148.04;100.00
5814;BME280;2933;52.302;8.134;2024-01-30T07:20:08;78457.63;;;-148.04;100.00
5814;BME280;2933;52.302;8.134;2024-01-30T07:25:12;78477.53;;;-148.04;100.00
5814;BME280;2933;52.302;8.134;2024-01-30T07:30:14;78505.38;;;-148.04;100.00
5814;BME280;2933;52.302;8.134;2024-01-30T07:35:16;78519.28;;;-148.04;100.00
5814;BME280;2933;52.302;8.134;2024-01-30T07:40:20;78519.28;;;-148.04;100.00
5814;BME280;2933;52.302;8.134;2024-01-30T07:45:21;78495.41;;;-148.04;100.00
5814;BME280;2933;52.302;8.134;2024-01-30T07:50:24;78515.31;;;-148.04;100.00
5814;BME280;2933;52.302;8.134;2024-01-30T07:55:28;78507.34;;;-148.04;100.00
5814;BME280;2933;52.302;8.134;2024-01-30T08:00:31;78443.72;;;-148.04;100.00
5814;BME280;2933;52.302;8.134;2024-01-30T08:05:33;78370.13;;;-148.04;100.00
5814;BME280;2933;52.302;8.134;2024-01-30T08:10:36;78318.41;;;-148.04;100.00
5814;BME280;2933;52.302;8.134;2024-01-30T08:15:38;78292.56;;;-148.04;100.00
5814;BME280;2933;52.302;8.134;2024-01-30T08:20:39;78304.50;;;-148.04;100.00
5814;BME280;2933;52.302;8.134;2024-01-30T08:25:42;78312.44;;;-148.04;100.00
5814;BME280;2933;52.302;8.134;2024-01-30T08:30:44;78328.34;;;-148.04;100.00
5814;BME280;2933;52.302;8.134;2024-01-30T08:35:46;78346.25;;;-148.04;100.00
5814;BME280;2933;52.302;8.134;2024-01-30T08:40:49;78324.38;;;-148.04;100.00
5814;BME280;2933;52.302;8.134;2024-01-30T08:45:50;78322.38;;;-148.04;100.00
5814;BME280;2933;52.302;8.134;2024-01-30T08:50:52;78292.56;;;-148.04;100.00
5814;BME280;2933;52.302;8.134;2024-01-30T08:55:55;78252.78;;;-148.04;100.00
5814;BME280;2933;52.302;8.134;2024-01-30T09:00:59;78216.97;;;-148.04;100.00
5814;BME280;2933;52.302;8.134;2024-01-30T09:06:00;78145.38;;;-148.04;100.00
5814;BME280;2933;52.302;8.134;2024-01-30T09:11:09;78115.56;;;-148.04;100.00
5814;BME280;2933;52.302;8.134;2024-01-30T09:16:11;78099.66;;;-148.04;100.00
5814;BME280;2933;52.302;8.134;2024-01-30T09:21:13;78095.66;;;-148.04;100.00
5814;BME280;2933;52.302;8.134;2024-01-30T09:26:15;78093.69;;;-148.04;100.00
5814;BME280;2933;52.302;8.134;2024-01-30T09:31:17;78097.66;;;-148.04;100.00
5814;BME280;2933;52.302;8.134;2024-01-30T09:36:19;78079.75;;;-148.04;100.00
5814;BME280;2933;52.302;8.134;2024-01-30T09:41:24;78067.81;;;-148.04;100.00
5814;BME280;2933;52.302;8.134;2024-01-30T09:46:27;78069.81;;;-148.04;100.00
5814;BME280;2933;52.302;8.134;2024-01-30T09:51:29;78059.88;;;-148.04;100.00
5814;BME280;2933;52.302;8.134;2024-01-30T09:56:33;78047.94;;;-148.04;100.00
5814;BME280;2933;52.302;8.134;2024-01-30T10:01:37;78038.00;;;-148.04;100.00
5814;BME280;2933;52.302;8.134;2024-01-30T10:06:40;78022.09;;;-148.04;100.00
5814;BME280;2933;52.302;8.134;2024-01-30T10:11:43;77996.22;;;-148.04;100.00
5814;BME280;2933;52.302;8.134;2024-01-30T10:16:46;77986.28;;;-148.04;100.00
5814;BME280;2933;52.302;8.134;2024-01-30T10:21:47;77948.50;;;-148.04;100.00
5814;BME280;2933;52.302;8.134;2024-01-30T10:26:50;77928.63;;;-148.04;100.00
5814;BME280;2933;52.302;8.134;2024-01-30T10:31:58;77910.72;;;-148.04;100.00
5814;BME280;2933;52.302;8.134;2024-01-30T10:37:07;77912.72;;;-148.04;100.00
5814;BME280;2933;52.302;8.134;2024-01-30T10:42:14;77922.66;;;-148.04;100.00
5814;BME280;2933;52.302;8.134;2024-01-30T10:47:21;77906.75;;;-148.04;100.00
5814;BME280;2933;52.302;8.134;2024-01-30T10:52:28;77882.88;;;-148.04;100.00
5814;BME280;2933;52.302;8.134;2024-01-30T10:57:33;77882.88;;;-148.04;100.00
5814;BME280;2933;52.302;8.134;2024-01-30T11:02:37;77884.88;;;-148.04;100.00
5814;BME280;2933;52.302;8.134;2024-01-30T11:07:40;77896.81;;;-148.04;100.00
5814;BME280;2933;52.302;8.134;2024-01-30T11:12:43;77894.81;;;-148.04;100.00
5814;BME280;2933;52.302;8.134;2024-01-30T11:17:50;77894.81;;;-148.04;100.00
5814;BME280;2933;52.302;8.134;2024-01-30T11:22:54;77888.84;;;-148.04;100.00
5814;BME280;2933;52.302;8.134;2024-01-30T11:27:58;77876.91;;;-148.04;100.00
5814;BME280;2933;52.302;8.134;2024-01-30T11:33:01;77880.88;;;-148.04;100.00
5814;BME280;2933;52.302;8.134;2024-01-30T11:38:05;77870.94;;;-148.04;100.00
5814;BME280;2933;52.302;8.134;2024-01-30T11:43:09;77866.97;;;-148.04;100.00
5814;BME280;2933;52.302;8.134;2024-01-30T11:48:11;77847.09;;;-148.04;100.00
5814;BME280;2933;52.302;8.134;2024-01-30T11:53:13;77859.00;;;-148.04;100.00
5814;BME280;2933;52.302;8.134;2024-01-30T11:58:16;77863.00;;;-148.04;100.00
5814;BME280;2933;52.302;8.134;2024-01-30T12:03:18;77855.03;;;-148.04;100.00
5814;BME280;2933;52.302;8.134;2024-01-30T12:08:19;77855.03;;;-148.04;100.00
5814;BME280;2933;52.302;8.134;2024-01-30T12:13:22;77837.13;;;-148.04;100.00
5814;BME280;2933;52.302;8.134;2024-01-30T12:18:24;77823.22;;;-148.04;100.00
5814;BME280;2933;52.302;8.134;2024-01-30T12:23:26;77813.28;;;-148.04;100.00
5814;BME280;2933;52.302;8.134;2024-01-30T12:28:30;77807.31;;;-148.04;100.00
5814;BME280;2933;52.302;8.134;2024-01-30T12:33:31;77777.47;;;-148.04;100.00
5814;BME280;2933;52.302;8.134;2024-01-30T12:38:33;77797.38;;;-148.04;100.00
5814;BME280;2933;52.302;8.134;2024-01-30T12:43:36;77797.38;;;-148.04;100.00
5814;BME280;2933;52.302;8.134;2024-01-30T12:48:38;77799.34;;;-148.04;100.00
5814;BME280;2933;52.302;8.134;2024-01-30T12:53:39;77823.22;;;-148.04;100.00
5814;BME280;2933;52.302;8.134;2024-01-30T12:58:42;77827.19;;;-148.04;100.00
5814;BME280;2933;52.302;8.134;2024-01-30T13:03:44;77823.22;;;-148.04;100.00
5814;BME280;2933;52.302;8.134;2024-01-30T13:08:46;77813.28;;;-148.04;100.00
5814;BME280;2933;52.302;8.134;2024-01-30T13:13:49;77821.22;;;-148.04;100.00
5814;BME280;2933;52.302;8.134;2024-01-30T13:18:50;77831.19;;;-148.04;100.00
5814;BME280;2933;52.302;8.134;2024-01-30T13:23:52;77833.16;;;-148.04;100.00
5814;BME280;2933;52.302;8.134;2024-01-30T13:28:56;77837.13;;;-148.04;100.00
5814;BME280;2933;52.302;8.134;2024-01-30T13:33:57;77837.13;;;-148.04;100.00
5814;BME280;2933;52.302;8.134;2024-01-30T13:38:59;77829.19;;;-148.04;100.00
5814;BME280;2933;52.302;8.134;2024-01-30T13:44:02;77833.16;;;-148.04;100.00
5814;BME280;2933;52.302;8.134;2024-01-30T13:49:04;77835.16;;;-148.04;100.00
5814;BME280;2933;52.302;8.134;2024-01-30T13:54:07;77827.19;;;-148.04;100.00
5814;BME280;2933;52.302;8.134;2024-01-30T13:59:10;77825.22;;;-148.04;100.00
5814;BME280;2933;52.302;8.134;2024-01-30T14:04:11;77803.34;;;-148.04;100.00
5814;BME280;2933;52.302;8.134;2024-01-30T14:09:14;77819.25;;;-148.04;100.00
5814;BME280;2933;52.302;8.134;2024-01-30T14:14:17;77807.31;;;-148.04;100.00
5814;BME280;2933;52.302;8.134;2024-01-30T14:19:19;77807.31;;;-148.04;100.00
5814;BME280;2933;52.302;8.134;2024-01-30T14:24:21;77803.34;;;-148.04;100.00
5814;BME280;2933;52.302;8.134;2024-01-30T14:29:24;77799.34;;;-148.04;100.00
5814;BME280;2933;52.302;8.134;2024-01-30T14:34:26;77805.31;;;-148.04;100.00
5814;BME280;2933;52.302;8.134;2024-01-30T14:39:28;77799.34;;;-148.04;100.00
5814;BME280;2933;52.302;8.134;2024-01-30T14:44:31;77809.31;;;-148.04;100.00
5814;BME280;2933;52.302;8.134;2024-01-30T14:49:33;77815.25;;;-148.04;100.00
5814;BME280;2933;52.302;8.134;2024-01-30T14:54:34;77813.28;;;-148.04;100.00
5814;BME280;2933;52.302;8.134;2024-01-30T14:59:37;77823.22;;;-148.04;100.00
5814;BME280;2933;52.302;8.134;2024-01-30T15:04:39;77819.25;;;-148.04;100.00
5814;BME280;2933;52.302;8.134;2024-01-30T15:09:41;77803.34;;;-148.04;100.00
5814;BME280;2933;52.302;8.134;2024-01-30T15:14:43;77811.28;;;-148.04;100.00
5814;BME280;2933;52.302;8.134;2024-01-30T15:19:50;77807.31;;;-148.04;100.00
5814;BME280;2933;52.302;8.134;2024-01-30T15:24:52;77827.19;;;-148.04;100.00
5814;BME280;2933;52.302;8.134;2024-01-30T15:29:55;77841.13;;;-148.04;100.00
5814;BME280;2933;52.302;8.134;2024-01-30T15:34:57;77851.06;;;-148.04;100.00
5814;BME280;2933;52.302;8.134;2024-01-30T15:40:01;77859.00;;;-148.04;100.00
5814;BME280;2933;52.302;8.134;2024-01-30T15:45:04;77878.91;;;-148.04;100.00
5814;BME280;2933;52.302;8.134;2024-01-30T15:50:07;77874.94;;;-148.04;100.00
5814;BME280;2933;52.302;8.134;2024-01-30T16:00:34;77922.66;;;-148.04;100.00
5814;BME280;2933;52.302;8.134;2024-01-30T16:05:36;77898.78;;;-148.04;100.00
5814;BME280;2933;52.302;8.134;2024-01-30T16:10:37;77910.72;;;-148.04;100.00
5814;BME280;2933;52.302;8.134;2024-01-30T16:15:40;77938.56;;;-148.04;100.00
5814;BME280;2933;52.302;8.134;2024-01-30T16:20:43;77942.53;;;-148.04;100.00
5814;BME280;2933;52.302;8.134;2024-01-30T16:25:45;77946.53;;;-148.04;100.00
5814;BME280;2933;52.302;8.134;2024-01-30T16:30:48;77958.44;;;-148.04;100.00
5814;BME280;2933;52.302;8.134;2024-01-30T16:35:50;77970.38;;;-148.04;100.00
5814;BME280;2933;52.302;8.134;2024-01-30T16:40:51;77996.22;;;-148.04;100.00
5814;BME280;2933;52.302;8.134;2024-01-30T16:45:54;78030.03;;;-148.04;100.00
5814;BME280;2933;52.302;8.134;2024-01-30T16:50:56;78059.88;;;-148.04;100.00
5814;BME280;2933;52.302;8.134;2024-01-30T16:55:59;78065.84;;;-148.04;100.00
5814;BME280;2933;52.302;8.134;2024-01-30T17:01:02;78077.78;;;-148.04;100.00
5814;BME280;2933;52.302;8.134;2024-01-30T17:06:04;78095.66;;;-148.04;100.00
5814;BME280;2933;52.302;8.134;2024-01-30T17:11:08;78109.59;;;-148.04;100.00
5814;BME280;2933;52.302;8.134;2024-01-30T17:16:12;78121.53;;;-148.04;100.00
5814;BME280;2933;52.302;8.134;2024-01-30T17:21:16;78123.50;;;-148.04;100.00
5814;BME280;2933;52.302;8.134;2024-01-30T17:26:18;78127.50;;;-148.04;100.00
5814;BME280;2933;52.302;8.134;2024-01-30T17:31:22;78107.59;;;-148.04;100.00
5814;BME280;2933;52.302;8.134;2024-01-30T17:36:23;78129.47;;;-148.04;100.00
5814;BME280;2933;52.302;8.134;2024-01-30T17:41:25;78135.44;;;-148.04;100.00
5814;BME280;2933;52.302;8.134;2024-01-30T17:46:28;78145.38;;;-148.04;100.00
5814;BME280;2933;52.302;8.134;2024-01-30T17:51:30;78165.28;;;-148.04;100.00
5814;BME280;2933;52.302;8.134;2024-01-30T17:56:31;78165.28;;;-148.04;100.00
5814;BME280;2933;52.302;8.134;2024-01-30T18:01:34;78177.22;;;-148.04;100.00
5814;BME280;2933;52.302;8.134;2024-01-30T18:06:37;78193.13;;;-148.04;100.00
5814;BME280;2933;52.302;8.134;2024-01-30T18:11:38;78209.03;;;-148.04;100.00
5814;BME280;2933;52.302;8.134;2024-01-30T18:16:41;78211.00;;;-148.04;100.00
5814;BME280;2933;52.302;8.134;2024-01-30T18:21:43;78226.94;;;-148.04;100.00
5814;BME280;2933;52.302;8.134;2024-01-30T18:26:45;78236.88;;;-148.04;100.00
5814;BME280;2933;52.302;8.134;2024-01-30T18:31:48;78248.81;;;-148.04;100.00
5814;BME280;2933;52.302;8.134;2024-01-30T18:36:50;78252.78;;;-148.04;100.00
5814;BME280;2933;52.302;8.134;2024-01-30T18:41:51;78254.78;;;-148.04;100.00
5814;BME280;2933;52.302;8.134;2024-01-30T18:46:55;78260.72;;;-148.04;100.00
5814;BME280;2933;52.302;8.134;2024-01-30T18:51:57;78274.66;;;-148.04;100.00
5814;BME280;2933;52.302;8.134;2024-01-30T18:56:59;78294.53;;;-148.04;100.00
5814;BME280;2933;52.302;8.134;2024-01-30T19:02:02;78296.53;;;-148.04;100.00
5814;BME280;2933;52.302;8.134;2024-01-30T19:07:04;78302.50;;;-148.04;100.00
5814;BME280;2933;52.302;8.134;2024-01-30T19:12:06;78314.44;;;-148.04;100.00
5814;BME280;2933;52.302;8.134;2024-01-30T19:17:09;78312.44;;;-148.04;100.00
5814;BME280;2933;52.302;8.134;2024-01-30T19:22:11;78320.41;;;-148.04;100.00
5814;BME280;2933;52.302;8.134;2024-01-30T19:27:13;78334.31;;;-148.04;100.00
5814;BME280;2933;52.302;8.134;2024-01-30T19:32:16;78344.25;;;-148.04;100.00
5814;BME280;2933;52.302;8.134;2024-01-30T19:37:18;78356.19;;;-148.04;100.00
5814;BME280;2933;52.302;8.134;2024-01-30T19:42:22;78372.09;;;-148.04;100.00
5814;BME280;2933;52.302;8.134;2024-01-30T19:47:25;78364.16;;;-148.04;100.00
5814;BME280;2933;52.302;8.134;2024-01-30T19:52:27;78372.09;;;-148.04;100.00
5814;BME280;2933;52.302;8.134;2024-01-30T19:57:28;78390.00;;;-148.04;100.00
5814;BME280;2933;52.302;8.134;2024-01-30T20:02:32;78390.00;;;-148.04;100.00
5814;BME280;2933;52.302;8.134;2024-01-30T20:07:33;78392.00;;;-148.04;100.00
5814;BME280;2933;52.302;8.134;2024-01-30T20:12:36;78395.97;;;-148.04;100.00
5814;BME280;2933;52.302;8.134;2024-01-30T20:17:40;78411.88;;;-148.04;100.00
5814;BME280;2933;52.302;8.134;2024-01-30T20:22:42;78433.75;;;-148.04;100.00
5814;BME280;2933;52.302;8.134;2024-01-30T20:27:44;78451.66;;;-148.04;100.00
5814;BME280;2933;52.302;8.134;2024-01-30T20:32:47;78463.59;;;-148.04;100.00
5814;BME280;2933;52.302;8.134;2024-01-30T20:37:49;78459.63;;;-148.04;100.00
5814;BME280;2933;52.302;8.134;2024-01-30T20:42:52;78483.50;;;-148.04;100.00
5814;BME280;2933;52.302;8.134;2024-01-30T20:47:55;78509.34;;;-148.04;100.00
5814;BME280;2933;52.302;8.134;2024-01-30T20:52:57;78539.19;;;-148.04;100.00
5814;BME280;2933;52.302;8.134;2024-01-30T20:57:58;78547.13;;;-148.04;100.00
5814;BME280;2933;52.302;8.134;2024-01-30T21:03:01;78551.09;;;-148.04;100.00
5814;BME280;2933;52.302;8.134;2024-01-30T21:08:04;78571.00;;;-148.04;100.00
5814;BME280;2933;52.302;8.134;2024-01-30T21:13:05;78586.91;;;-148.04;100.00
5814;BME280;2933;52.302;8.134;2024-01-30T21:18:08;78574.97;;;-148.04;100.00
5814;BME280;2933;52.302;8.134;2024-01-30T21:23:10;78584.94;;;-148.04;100.00
5814;BME280;2933;52.302;8.134;2024-01-30T21:28:14;78606.81;;;-148.04;100.00
5814;BME280;2933;52.302;8.134;2024-01-30T21:33:19;78600.84;;;-148.04;100.00
5814;BME280;2933;52.302;8.134;2024-01-30T21:38:20;78600.84;;;-148.04;100.00
5814;BME280;2933;52.302;8.134;2024-01-30T21:43:22;78596.84;;;-148.04;100.00
5814;BME280;2933;52.302;8.134;2024-01-30T21:48:25;78602.81;;;-148.04;100.00
5814;BME280;2933;52.302;8.134;2024-01-30T21:53:27;78610.78;;;-148.04;100.00
5814;BME280;2933;52.302;8.134;2024-01-30T21:58:28;78614.75;;;-148.04;100.00
5814;BME280;2933;52.302;8.134;2024-01-30T22:03:31;78612.78;;;-148.04;100.00
5814;BME280;2933;52.302;8.134;2024-01-30T22:08:33;78626.69;;;-148.04;100.00
5814;BME280;2933;52.302;8.134;2024-01-30T22:13:34;78622.72;;;-148.04;100.00
5814;BME280;2933;52.302;8.134;2024-01-30T22:18:39;78624.69;;;-148.04;100.00
5814;BME280;2933;52.302;8.134;2024-01-30T22:23:41;78654.53;;;-148.04;100.00
5814;BME280;2933;52.302;8.134;2024-01-30T22:28:43;78650.56;;;-148.04;100.00
5814;BME280;2933;52.302;8.134;2024-01-30T22:33:45;78678.41;;;-148.04;100.00
5814;BME280;2933;52.302;8.134;2024-01-30T22:38:47;78678.41;;;-148.04;100.00
5814;BME280;2933;52.302;8.134;2024-01-30T22:43:49;78680.41;;;-148.04;100.00
5814;BME280;2933;52.302;8.134;2024-01-30T22:48:52;78678.41;;;-148.04;100.00
5814;BME280;2933;52.302;8.134;2024-01-30T22:53:53;78694.31;;;-148.04;100.00
5814;BME280;2933;52.302;8.134;2024-01-30T22:58:55;78708.25;;;-148.04;100.00
5814;BME280;2933;52.302;8.134;2024-01-30T23:03:58;78722.16;;;-148.04;100.00
5814;BME280;2933;52.302;8.134;2024-01-30T23:08:59;78724.16;;;-148.04;100.00
5814;BME280;2933;52.302;8.134;2024-01-30T23:14:01;78730.13;;;-148.04;100.00
5814;BME280;2933;52.302;8.134;2024-01-30T23:19:05;78738.06;;;-148.04;100.00
5814;BME280;2933;52.302;8.134;2024-01-30T23:24:06;78754.00;;;-148.04;100.00
5814;BME280;2933;52.302;8.134;2024-01-30T23:29:10;78769.91;;;-148.04;100.00
5814;BME280;2933;52.302;8.134;2024-01-30T23:34:13;78775.88;;;-148.04;100.00
5814;BME280;2933;52.302;8.134;2024-01-30T23:39:15;78785.81;;;-148.04;100.00
5814;BME280;2933;52.302;8.134;2024-01-30T23:44:17;78809.69;;;-148.04;100.00
5814;BME280;2933;52.302;8.134;2024-01-30T23:49:21;78803.72;;;-148.04;100.00
5814;BME280;2933;52.302;8.134;2024-01-30T23:54:22;78811.66;;;-148.04;100.00
5814;BME280;2933;52.302;8.134;2024-01-30T23:59:24;78815.66;;;-148.04;100.00
